Time;durP1;ratioP1;P1;durP2;ratioP2;P2;SDS_P1;SDS_P2;PMS_P1;PMS_P2;Temp;Humidity;BMP_temperature;BMP_pressure;BME280_temperature;BME280_humidity;BME280_pressure;Samples;Min_cycle;Max_cycle;Signal;HPM_P1;HPM_P2
2022/01/21 00:01:25;;;;;;;;;;;;;;;-22.41;61.31;97227.97;6346738;28;19931;-63
2022/01/21 00:04:26;;;;;;;;;;;;;;;-22.44;60.97;97235.22;6346424;28;19924;-63
2022/01/21 00:07:27;;;;;;;;;;;;;;;-22.45;61.33;97234.34;6345974;28;19946;-63
2022/01/21 00:10:28;;;;;;;;;;;;;;;-22.47;61.08;97227.53;6346360;28;19924;-62
2022/01/21 00:13:35;;;;;;;;;;;;;;;-22.51;60.90;97230.59;6346077;28;19933;-62
2022/01/21 00:16:38;;;;;;;;;;;;;;;-22.53;61.24;97229.59;6346566;28;19923;-63
2022/01/21 00:19:44;;;;;;;;;;;;;;;-22.52;61.18;97227.22;6346823;28;19924;-63
2022/01/21 00:32:47;;;;;;;;;;;;;;;-22.55;61.05;97231.16;6346404;28;19927;-63
2022/01/21 00:35:48;;;;;;;;;;;;;;;-22.59;60.54;97231.69;6346467;28;19926;-62
2022/01/21 00:38:49;;;;;;;;;;;;;;;-22.63;60.67;97224.78;6346362;28;20433;-63
2022/01/21 00:42:07;;;;;;;;;;;;;;;-22.64;60.87;97220.53;6346400;28;19920;-63
2022/01/21 00:45:14;;;;;;;;;;;;;;;-22.62;61.05;97224.00;6345497;28;19931;-62
2022/01/21 00:48:15;;;;;;;;;;;;;;;-22.58;60.65;97230.94;6346489;28;20331;-63
2022/01/21 00:51:16;;;;;;;;;;;;;;;-22.61;60.54;97230.72;6345622;28;19924;-62
2022/01/21 00:54:17;;;;;;;;;;;;;;;-22.61;60.61;97233.22;6345596;28;19924;-63
2022/01/21 00:57:18;;;;;;;;;;;;;;;-22.61;60.81;97226.63;6346250;28;20419;-64
2022/01/21 01:00:19;;;;;;;;;;;;;;;-22.61;60.75;97230.72;6346013;28;19928;-64
2022/01/21 01:03:20;;;;;;;;;;;;;;;-22.63;60.42;97232.25;6345480;28;19923;-63
2022/01/21 01:06:21;;;;;;;;;;;;;;;-22.67;60.65;97237.03;6345930;28;19923;-62
2022/01/21 01:09:22;;;;;;;;;;;;;;;-22.65;60.75;97236.28;6345577;28;19928;-63
2022/01/21 01:12:30;;;;;;;;;;;;;;;-22.67;60.72;97237.03;6345218;28;19919;-62
2022/01/21 01:22:14;;;;;;;;;;;;;;;-22.71;60.01;97247.56;6345082;28;19931;-63
2022/01/21 01:28:38;;;;;;;;;;;;;;;-22.83;60.25;97238.38;6345539;28;20288;-63
2022/01/21 01:31:39;;;;;;;;;;;;;;;-22.83;59.96;97245.88;6345582;28;20073;-63
2022/01/21 01:34:40;;;;;;;;;;;;;;;-22.86;60.10;97249.00;6345965;28;19923;-63
2022/01/21 01:40:57;;;;;;;;;;;;;;;-22.84;60.24;97252.44;6348489;28;19928;-64
2022/01/21 01:50:37;;;;;;;;;;;;;;;-22.82;60.44;97250.94;6349540;28;19924;-63
2022/01/21 01:53:41;;;;;;;;;;;;;;;-22.82;60.66;97245.94;6350038;28;19924;-63
2022/01/21 01:56:44;;;;;;;;;;;;;;;-22.81;60.08;97252.69;6349792;28;19928;-62
2022/01/21 01:59:46;;;;;;;;;;;;;;;-22.81;60.50;97256.78;6349455;28;20430;-63
2022/01/21 02:02:49;;;;;;;;;;;;;;;-22.80;60.12;97244.44;6349421;28;19923;-62
2022/01/21 02:05:52;;;;;;;;;;;;;;;-22.82;60.17;97255.91;6349430;28;20309;-63
2022/01/21 02:08:53;;;;;;;;;;;;;;;-22.78;60.17;97262.88;6349778;28;19929;-63
2022/01/21 02:11:56;;;;;;;;;;;;;;;-22.76;59.86;97266.31;6349128;28;20345;-64
2022/01/21 02:15:00;;;;;;;;;;;;;;;-22.78;59.72;97257.88;6348645;28;19946;-63
2022/01/21 02:21:54;;;;;;;;;;;;;;;-22.83;59.89;97259.19;6348519;28;19924;-62
2022/01/21 02:24:58;;;;;;;;;;;;;;;-22.83;59.95;97260.81;6345054;28;19929;-62
2022/01/21 02:27:59;;;;;;;;;;;;;;;-22.81;60.13;97257.69;6348482;28;19953;-63
2022/01/21 02:31:02;;;;;;;;;;;;;;;-22.79;59.86;97255.28;6348091;28;19938;-64
2022/01/21 02:34:05;;;;;;;;;;;;;;;-22.82;59.92;97262.53;6348406;28;20012;-63
2022/01/21 02:37:10;;;;;;;;;;;;;;;-22.85;59.60;97265.69;6347119;28;19923;-63
2022/01/21 02:40:11;;;;;;;;;;;;;;;-22.87;59.94;97257.22;6347259;28;19931;-63
2022/01/21 02:43:14;;;;;;;;;;;;;;;-22.92;59.79;97261.06;6348195;28;19927;-63
2022/01/21 02:46:16;;;;;;;;;;;;;;;-22.95;59.66;97276.69;6348134;28;20404;-63
2022/01/21 02:49:17;;;;;;;;;;;;;;;-22.96;59.92;97276.56;6348191;28;19924;-62
2022/01/21 02:52:22;;;;;;;;;;;;;;;-22.94;59.82;97275.03;6348110;28;19945;-63
2022/01/21 02:55:24;;;;;;;;;;;;;;;-22.91;59.99;97272.75;6347994;28;19931;-63
2022/01/21 02:58:25;;;;;;;;;;;;;;;-22.87;59.90;97264.69;6348302;28;19923;-63
2022/01/21 03:01:26;;;;;;;;;;;;;;;-22.85;59.61;97265.69;6348001;28;20294;-64
2022/01/21 03:07:58;;;;;;;;;;;;;;;-22.86;60.16;97275.56;6319208;28;20400;-63
2022/01/21 03:10:59;;;;;;;;;;;;;;;-22.87;59.62;97272.19;6347647;28;20007;-63
2022/01/21 03:14:00;;;;;;;;;;;;;;;-22.88;60.01;97275.44;6347688;28;20285;-64
2022/01/21 03:17:01;;;;;;;;;;;;;;;-22.87;59.69;97277.16;6347935;28;19924;-63
2022/01/21 03:20:03;;;;;;;;;;;;;;;-22.89;59.84;97273.72;6346803;28;19927;-63
2022/01/21 03:23:08;;;;;;;;;;;;;;;-22.91;59.99;97276.09;6347816;28;20411;-63
2022/01/21 03:26:16;;;;;;;;;;;;;;;-22.90;60.19;97277.81;6347685;28;19923;-63
2022/01/21 03:29:20;;;;;;;;;;;;;;;-22.87;59.88;97284.63;6347696;28;19930;-62
2022/01/21 03:32:25;;;;;;;;;;;;;;;-22.87;59.73;97291.25;6347568;28;20309;-63
2022/01/21 03:35:26;;;;;;;;;;;;;;;-22.88;59.87;97294.53;6346690;28;20044;-63
2022/01/21 03:38:28;;;;;;;;;;;;;;;-22.87;59.65;97292.13;6347101;28;19931;-63
2022/01/21 03:41:29;;;;;;;;;;;;;;;-22.88;59.48;97285.41;6328235;28;19923;-62
2022/01/21 03:44:32;;;;;;;;;;;;;;;-22.85;60.10;97289.75;6346165;28;19931;-64
2022/01/21 03:47:33;;;;;;;;;;;;;;;-22.80;59.87;97309.25;6346592;28;19930;-62
2022/01/21 03:50:34;;;;;;;;;;;;;;;-22.78;59.60;97307.72;6346112;28;20396;-62
2022/01/21 03:53:35;;;;;;;;;;;;;;;-22.73;59.84;97303.03;6346806;28;19930;-62
2022/01/21 03:56:37;;;;;;;;;;;;;;;-22.71;59.60;97304.88;6346904;28;19924;-63
2022/01/21 03:59:40;;;;;;;;;;;;;;;-22.69;59.43;97310.00;6346751;28;20026;-63
2022/01/21 04:02:42;;;;;;;;;;;;;;;-22.63;59.87;97307.06;6345307;28;19923;-63
2022/01/21 04:05:43;;;;;;;;;;;;;;;-22.61;59.55;97300.53;6345659;28;19924;-63
2022/01/21 04:08:49;;;;;;;;;;;;;;;-22.59;59.64;97309.00;6347003;28;19924;-63
2022/01/21 04:11:52;;;;;;;;;;;;;;;-22.57;59.70;97303.34;6346146;28;19923;-63
2022/01/21 04:14:58;;;;;;;;;;;;;;;-22.51;59.33;97308.75;6346553;28;19924;-62
2022/01/21 04:17:59;;;;;;;;;;;;;;;-22.46;59.31;97312.44;6346253;28;19930;-63
2022/01/21 04:21:00;;;;;;;;;;;;;;;-22.40;59.72;97307.00;6346495;28;19919;-64
2022/01/21 04:24:02;;;;;;;;;;;;;;;-22.34;59.47;97307.41;6345510;28;20313;-64
2022/01/21 04:27:03;;;;;;;;;;;;;;;-22.27;59.23;97314.56;6346318;28;19924;-63
2022/01/21 04:30:05;;;;;;;;;;;;;;;-22.18;59.06;97309.31;6345562;28;20412;-64
2022/01/21 04:33:09;;;;;;;;;;;;;;;-22.05;59.15;97305.97;6346148;28;19927;-64
2022/01/21 04:36:10;;;;;;;;;;;;;;;-21.91;59.04;97301.91;6346222;28;20040;-64
2022/01/21 04:39:18;;;;;;;;;;;;;;;-21.77;58.38;97302.03;6346216;28;19924;-64
2022/01/21 04:48:42;;;;;;;;;;;;;;;-21.50;57.46;97288.75;6344996;28;19923;-63
2022/01/21 04:52:02;;;;;;;;;;;;;;;-21.43;57.63;97296.72;6346054;28;19924;-63
2022/01/21 04:55:03;;;;;;;;;;;;;;;-21.28;57.37;97290.94;6345184;28;20297;-63
2022/01/21 04:58:04;;;;;;;;;;;;;;;-21.15;57.29;97288.47;6345924;28;19924;-63
2022/01/21 05:01:06;;;;;;;;;;;;;;;-21.00;56.97;97294.47;6345801;28;19962;-64
2022/01/21 05:04:10;;;;;;;;;;;;;;;-20.85;57.09;97300.41;6343799;28;19923;-63
2022/01/21 05:07:21;;;;;;;;;;;;;;;-20.62;57.16;97303.47;6344845;28;19924;-64
2022/01/21 05:10:27;;;;;;;;;;;;;;;-20.37;57.21;97302.44;6345654;28;19938;-63
2022/01/21 05:13:36;;;;;;;;;;;;;;;-20.20;57.27;97289.28;6345776;28;19920;-63
2022/01/21 05:16:45;;;;;;;;;;;;;;;-20.11;56.89;97293.97;6350587;28;19923;-63
2022/01/21 05:19:46;;;;;;;;;;;;;;;-20.04;56.62;97296.06;6350637;28;19923;-64
2022/01/21 05:22:49;;;;;;;;;;;;;;;-19.92;56.70;97295.91;6350110;28;19942;-63
2022/01/21 05:25:53;;;;;;;;;;;;;;;-19.74;56.11;97307.03;6350684;28;19931;-63
2022/01/21 05:28:54;;;;;;;;;;;;;;;-19.48;56.64;97311.84;6349790;28;19924;-63
2022/01/21 05:31:55;;;;;;;;;;;;;;;-19.17;56.61;97311.09;6349662;28;19923;-63
2022/01/21 05:34:58;;;;;;;;;;;;;;;-18.84;56.09;97303.72;6349942;28;19924;-63
2022/01/21 05:37:59;;;;;;;;;;;;;;;-18.52;54.64;97307.09;6350220;28;19978;-63
2022/01/21 05:41:03;;;;;;;;;;;;;;;-18.15;54.76;97315.78;6350192;28;19923;-63
2022/01/21 05:44:10;;;;;;;;;;;;;;;-17.84;53.99;97322.41;6349830;28;20022;-63
2022/01/21 05:47:11;;;;;;;;;;;;;;;-17.70;53.44;97321.44;6349459;28;19951;-63
2022/01/21 05:50:13;;;;;;;;;;;;;;;-17.50;54.60;97324.09;6350205;28;19924;-63
2022/01/21 05:53:14;;;;;;;;;;;;;;;-17.23;55.14;97334.69;6349191;28;20045;-63
2022/01/21 05:56:15;;;;;;;;;;;;;;;-17.01;54.96;97336.59;6349545;28;20351;-63
2022/01/21 05:59:16;;;;;;;;;;;;;;;-16.72;55.12;97344.69;6348906;28;20285;-63
2022/01/21 06:02:17;;;;;;;;;;;;;;;-16.43;55.16;97349.44;6348866;28;19969;-63
2022/01/21 06:05:18;;;;;;;;;;;;;;;-16.14;54.70;97347.41;6349508;28;20281;-64
2022/01/21 06:08:20;;;;;;;;;;;;;;;-15.97;54.37;97341.47;6349519;28;19931;-63
2022/01/21 06:11:21;;;;;;;;;;;;;;;-15.92;54.66;97345.06;6331124;28;20407;-64
2022/01/21 06:14:24;;;;;;;;;;;;;;;-15.78;54.83;97344.81;6348592;28;19958;-63
2022/01/21 06:17:25;;;;;;;;;;;;;;;-15.64;54.92;97346.25;6349478;28;19931;-64
2022/01/21 06:20:30;;;;;;;;;;;;;;;-15.65;54.91;97349.56;6349280;28;19924;-64
2022/01/21 06:23:31;;;;;;;;;;;;;;;-15.62;54.71;97350.56;6348281;28;19930;-63
2022/01/21 06:26:32;;;;;;;;;;;;;;;-15.49;55.00;97356.16;6347796;28;20372;-64
2022/01/21 06:29:33;;;;;;;;;;;;;;;-15.33;54.66;97361.06;6349001;28;19924;-64
2022/01/21 06:32:34;;;;;;;;;;;;;;;-15.16;54.35;97356.75;6348621;28;19930;-63
2022/01/21 06:35:35;;;;;;;;;;;;;;;-14.96;54.15;97355.91;6349091;28;19924;-64
2022/01/21 06:38:36;;;;;;;;;;;;;;;-14.78;53.66;97359.97;6348700;28;19993;-64
2022/01/21 06:41:40;;;;;;;;;;;;;;;-14.61;54.09;97353.94;6348756;28;19924;-63
2022/01/21 06:44:41;;;;;;;;;;;;;;;-14.40;53.98;97353.94;6348578;28;19924;-63
2022/01/21 06:47:46;;;;;;;;;;;;;;;-14.18;54.14;97368.28;6348371;28;19930;-63
2022/01/21 06:50:47;;;;;;;;;;;;;;;-14.02;54.12;97365.50;6348226;28;20059;-64
2022/01/21 06:53:48;;;;;;;;;;;;;;;-13.84;53.89;97352.72;6348401;28;19931;-64
2022/01/21 06:56:49;;;;;;;;;;;;;;;-13.57;53.86;97368.03;6329730;28;19924;-64
2022/01/21 06:59:50;;;;;;;;;;;;;;;-11.69;53.87;97366.56;6348343;28;20308;-64
2022/01/21 07:02:54;;;;;;;;;;;;;;;-7.28;45.25;97365.69;6348694;28;20448;-63
2022/01/21 07:05:55;;;;;;;;;;;;;;;-2.99;39.78;97359.09;6347371;28;19943;-64
2022/01/21 07:08:56;;;;;;;;;;;;;;;0.71;37.44;97365.47;6347592;28;19924;-64
2022/01/21 07:11:57;;;;;;;;;;;;;;;4.10;27.84;97356.28;6347380;28;19979;-63
2022/01/21 07:15:01;;;;;;;;;;;;;;;6.66;27.96;97360.91;6347938;28;19942;-63
2022/01/21 07:18:04;;;;;;;;;;;;;;;8.58;19.38;97360.16;6347957;28;19924;-63
2022/01/21 07:21:07;;;;;;;;;;;;;;;10.32;18.40;97359.81;6347872;28;20022;-63
2022/01/21 07:24:10;;;;;;;;;;;;;;;11.82;18.56;97365.88;6346688;28;19920;-63
2022/01/21 07:27:14;;;;;;;;;;;;;;;13.12;23.28;97376.00;6347523;28;19946;-64
2022/01/21 07:30:16;;;;;;;;;;;;;;;14.02;18.30;97366.31;6347840;28;19923;-62
2022/01/21 07:33:17;;;;;;;;;;;;;;;14.94;17.08;97372.88;6347479;28;19943;-63
2022/01/21 07:36:18;;;;;;;;;;;;;;;15.70;16.52;97366.22;6347496;28;19946;-63
2022/01/21 07:39:19;;;;;;;;;;;;;;;16.39;14.75;97365.25;6347003;28;19975;-62
2022/01/21 07:42:24;;;;;;;;;;;;;;;16.95;12.49;97367.75;6347458;28;19924;-64
2022/01/21 07:45:25;;;;;;;;;;;;;;;17.29;13.25;97359.59;6347274;28;20358;-63
2022/01/21 07:48:28;;;;;;;;;;;;;;;17.61;14.13;97364.03;6346459;28;20014;-63
2022/01/21 07:51:32;;;;;;;;;;;;;;;17.75;12.22;97366.34;6328598;28;19927;-62
2022/01/21 07:54:36;;;;;;;;;;;;;;;18.00;12.96;97361.56;6347019;28;19976;-64
2022/01/21 07:57:39;;;;;;;;;;;;;;;18.29;11.75;97364.38;6328512;28;20396;-62
2022/01/21 08:00:42;;;;;;;;;;;;;;;18.60;19.14;97367.81;6346886;28;19930;-63
2022/01/21 08:03:43;;;;;;;;;;;;;;;19.02;18.33;97364.91;6346737;28;20020;-63
2022/01/21 08:06:46;;;;;;;;;;;;;;;19.38;12.66;97365.19;6346610;28;20419;-63
2022/01/21 08:09:49;;;;;;;;;;;;;;;19.52;17.89;97375.41;6346417;28;19931;-63
2022/01/21 08:12:53;;;;;;;;;;;;;;;19.76;13.59;97376.78;6346268;28;19930;-62
2022/01/21 08:15:55;;;;;;;;;;;;;;;20.01;18.82;97370.81;6345385;28;19924;-64
2022/01/21 08:18:59;;;;;;;;;;;;;;;20.09;20.03;97372.75;6346544;28;20018;-62
2022/01/21 08:22:20;;;;;;;;;;;;;;;20.13;12.90;97375.00;6346738;28;20414;-63
2022/01/21 08:25:21;;;;;;;;;;;;;;;20.12;12.71;97378.63;6346387;28;19931;-63
2022/01/21 08:28:22;;;;;;;;;;;;;;;20.20;12.61;97375.25;6346271;28;19924;-63
2022/01/21 08:31:26;;;;;;;;;;;;;;;20.36;14.50;97379.97;6346463;28;20305;-64
2022/01/21 08:34:34;;;;;;;;;;;;;;;20.37;11.76;97377.13;6346194;28;19927;-63
2022/01/21 08:37:35;;;;;;;;;;;;;;;20.34;10.43;97381.94;6346008;28;19931;-62
2022/01/21 08:40:38;;;;;;;;;;;;;;;20.37;13.36;97384.31;6346007;28;19934;-62
2022/01/21 08:43:42;;;;;;;;;;;;;;;20.29;11.00;97384.19;6346218;28;19928;-64
2022/01/21 08:46:45;;;;;;;;;;;;;;;19.89;16.75;97383.50;6346098;28;19919;-63
2022/01/21 08:49:48;;;;;;;;;;;;;;;19.54;12.61;97388.63;6350834;28;19930;-63
2022/01/21 08:52:56;;;;;;;;;;;;;;;19.53;16.90;97395.78;6354369;28;19919;-63
2022/01/21 08:55:57;;;;;;;;;;;;;;;19.70;12.73;97395.09;6354478;28;20018;-63
2022/01/21 08:58:58;;;;;;;;;;;;;;;19.83;14.44;97388.59;6352993;28;20004;-63
2022/01/21 09:02:05;;;;;;;;;;;;;;;19.79;17.47;97382.72;6354129;28;19942;-63
2022/01/21 09:05:06;;;;;;;;;;;;;;;19.70;16.11;97375.53;6354218;28;19931;-64
2022/01/21 09:08:07;;;;;;;;;;;;;;;19.73;10.86;97368.09;6335387;28;19930;-64
2022/01/21 09:11:13;;;;;;;;;;;;;;;19.74;16.95;97380.47;6354106;28;20407;-63
2022/01/21 09:14:15;;;;;;;;;;;;;;;19.76;15.32;97366.09;6353053;28;19924;-63
2022/01/21 09:17:18;;;;;;;;;;;;;;;19.66;13.41;97372.31;6353954;28;20028;-64
2022/01/21 09:20:25;;;;;;;;;;;;;;;19.48;16.33;97368.69;6353835;28;19942;-62
2022/01/21 09:23:28;;;;;;;;;;;;;;;19.32;15.61;97365.75;6353833;28;19926;-62
2022/01/21 09:26:29;;;;;;;;;;;;;;;19.05;15.10;97364.63;6352832;28;19923;-63
2022/01/21 09:29:30;;;;;;;;;;;;;;;18.92;13.59;97366.75;6353182;28;19919;-63
2022/01/21 09:32:35;;;;;;;;;;;;;;;18.90;15.03;97358.88;6353668;28;19924;-63
2022/01/21 09:35:36;;;;;;;;;;;;;;;18.91;11.08;97365.03;6352857;28;19919;-64
2022/01/21 09:38:37;;;;;;;;;;;;;;;18.76;14.89;97370.78;6353097;28;20290;-64
2022/01/21 09:41:42;;;;;;;;;;;;;;;18.62;16.63;97365.81;6334571;28;19977;-63
2022/01/21 09:44:46;;;;;;;;;;;;;;;18.51;12.03;97358.81;6353780;28;19923;-63
2022/01/21 09:47:49;;;;;;;;;;;;;;;18.48;14.92;97369.72;6352877;28;19967;-64
2022/01/21 09:50:57;;;;;;;;;;;;;;;18.38;15.92;97368.88;6353320;28;19924;-64
2022/01/21 09:54:03;;;;;;;;;;;;;;;18.21;13.32;97367.69;6353299;28;20336;-63
2022/01/21 09:57:08;;;;;;;;;;;;;;;17.97;16.83;97364.50;6353378;28;19924;-63
2022/01/21 10:00:13;;;;;;;;;;;;;;;17.49;16.54;97366.75;6352595;28;20296;-64
2022/01/21 10:03:18;;;;;;;;;;;;;;;17.01;17.04;97377.91;6349114;28;20401;-62
2022/01/21 10:06:22;;;;;;;;;;;;;;;16.67;16.55;97376.28;6348253;28;19937;-64
2022/01/21 10:09:25;;;;;;;;;;;;;;;16.42;17.03;97369.44;6348226;28;19931;-64
2022/01/21 10:12:26;;;;;;;;;;;;;;;16.23;13.96;97376.25;6349259;28;19923;-64
2022/01/21 10:15:30;;;;;;;;;;;;;;;16.08;15.69;97367.69;6348855;28;19924;-64
2022/01/21 10:18:34;;;;;;;;;;;;;;;15.88;12.50;97365.75;6348881;28;19924;-63
2022/01/21 10:21:45;;;;;;;;;;;;;;;15.59;12.94;97370.63;6331308;28;20316;-64
2022/01/21 10:24:58;;;;;;;;;;;;;;;15.29;12.59;97368.56;6348976;28;19923;-64
2022/01/21 10:28:13;;;;;;;;;;;;;;;14.94;12.98;97364.91;6348208;28;19930;-64
2022/01/21 10:31:16;;;;;;;;;;;;;;;14.61;12.43;97362.97;6348206;28;19934;-63
2022/01/21 10:34:40;;;;;;;;;;;;;;;14.18;12.71;97366.03;6347694;28;19924;-63
2022/01/21 10:37:41;;;;;;;;;;;;;;;13.67;13.02;97360.81;6348925;28;19931;-63
2022/01/21 10:40:42;;;;;;;;;;;;;;;12.75;13.67;97369.66;6348556;28;19923;-64
2022/01/21 10:44:01;;;;;;;;;;;;;;;9.83;17.03;97363.31;6348828;28;20008;-64
2022/01/21 10:47:05;;;;;;;;;;;;;;;6.16;19.95;97355.13;6347825;28;19935;-64
2022/01/21 10:50:06;;;;;;;;;;;;;;;3.37;21.57;97360.19;6347270;28;19927;-62
2022/01/21 10:53:24;;;;;;;;;;;;;;;1.38;25.06;97355.53;6348548;28;19938;-64
2022/01/21 10:56:27;;;;;;;;;;;;;;;-0.19;27.27;97364.34;6348524;28;20351;-64
2022/01/21 10:59:48;;;;;;;;;;;;;;;-1.18;28.89;97362.13;6329143;28;19924;-63
2022/01/21 11:02:54;;;;;;;;;;;;;;;-2.02;30.04;97371.47;6335201;28;19924;-64
2022/01/21 11:06:16;;;;;;;;;;;;;;;-2.72;30.77;97378.75;6348285;28;19923;-64
2022/01/21 11:09:28;;;;;;;;;;;;;;;-3.50;31.45;97375.53;6348160;28;19924;-64
2022/01/21 11:12:32;;;;;;;;;;;;;;;-4.10;31.33;97375.56;6347677;28;19923;-63
2022/01/21 11:15:38;;;;;;;;;;;;;;;-4.62;32.05;97372.88;6347595;28;19923;-64
2022/01/21 11:19:05;;;;;;;;;;;;;;;-5.07;31.89;97380.41;6348134;28;20354;-63
2022/01/21 11:22:09;;;;;;;;;;;;;;;-5.49;32.33;97387.03;6347801;28;19923;-64
2022/01/21 11:25:12;;;;;;;;;;;;;;;-5.81;31.95;97393.63;6347779;28;19924;-63
2022/01/21 11:28:16;;;;;;;;;;;;;;;-6.13;32.31;97407.91;6347650;28;19924;-64
2022/01/21 11:31:19;;;;;;;;;;;;;;;-6.43;32.86;97403.34;6347437;28;19924;-63
2022/01/21 11:34:20;;;;;;;;;;;;;;;-6.70;32.53;97403.91;6346314;28;19930;-65
2022/01/21 11:37:23;;;;;;;;;;;;;;;-6.96;32.55;97401.06;6346217;28;19930;-64
2022/01/21 11:40:25;;;;;;;;;;;;;;;-7.24;33.48;97395.59;6347459;28;19923;-64
2022/01/21 11:43:29;;;;;;;;;;;;;;;-7.50;34.64;97399.47;6347247;28;20408;-64
2022/01/21 11:49:35;;;;;;;;;;;;;;;-7.91;33.70;97399.72;6346209;28;19924;-64
2022/01/21 11:52:54;;;;;;;;;;;;;;;-8.06;33.57;97404.59;6346688;28;19931;-64
2022/01/21 11:55:55;;;;;;;;;;;;;;;-8.28;34.85;97409.31;6311343;28;20389;-64
2022/01/21 11:59:06;;;;;;;;;;;;;;;-8.50;34.70;97410.66;6328753;28;19923;-64
2022/01/21 12:02:13;;;;;;;;;;;;;;;-8.67;34.48;97405.22;6346510;28;20313;-64
2022/01/21 12:05:24;;;;;;;;;;;;;;;-8.87;37.18;97412.50;6346572;28;19930;-64
2022/01/21 12:08:43;;;;;;;;;;;;;;;-9.04;37.36;97413.84;6346308;28;19930;-64
2022/01/21 12:11:55;;;;;;;;;;;;;;;-9.19;35.11;97409.31;6345905;28;19935;-63
2022/01/21 12:15:03;;;;;;;;;;;;;;;-9.44;35.33;97414.72;6345655;28;19924;-64
2022/01/21 12:18:21;;;;;;;;;;;;;;;-9.66;35.72;97411.66;6346350;28;20293;-65
2022/01/21 12:21:26;;;;;;;;;;;;;;;-9.92;36.30;97420.41;6327480;28;19930;-64
2022/01/21 12:24:44;;;;;;;;;;;;;;;-10.08;36.26;97424.25;6326726;28;19924;-64
2022/01/21 12:28:05;;;;;;;;;;;;;;;-10.29;38.23;97422.94;6345582;28;19923;-64
2022/01/21 12:31:07;;;;;;;;;;;;;;;-10.44;38.12;97425.97;6345594;28;19930;-64
2022/01/21 12:34:14;;;;;;;;;;;;;;;-10.54;36.87;97420.59;6346381;28;20405;-64
2022/01/21 12:37:24;;;;;;;;;;;;;;;-10.71;37.30;97427.75;6346095;28;19923;-64
2022/01/21 12:40:32;;;;;;;;;;;;;;;-10.87;38.67;97422.28;6345560;28;20463;-64
2022/01/21 12:43:47;;;;;;;;;;;;;;;-10.95;37.70;97423.75;6328060;28;19930;-64
2022/01/21 12:46:52;;;;;;;;;;;;;;;-11.07;37.63;97423.38;6345286;28;20415;-62
2022/01/21 12:49:54;;;;;;;;;;;;;;;-11.18;38.49;97425.63;6327491;28;19924;-64
2022/01/21 12:53:15;;;;;;;;;;;;;;;-11.24;37.49;97439.81;6345654;28;19923;-64
2022/01/21 12:56:20;;;;;;;;;;;;;;;-11.40;39.24;97441.94;6346061;28;20010;-64
2022/01/21 12:59:22;;;;;;;;;;;;;;;-11.53;40.95;97442.38;6344492;28;19924;-63
2022/01/21 13:02:24;;;;;;;;;;;;;;;-11.65;43.15;97452.16;6345793;28;19924;-64
2022/01/21 13:05:32;;;;;;;;;;;;;;;-11.78;42.60;97451.75;6345479;28;19924;-64
2022/01/21 13:08:44;;;;;;;;;;;;;;;-11.90;42.71;97456.50;6345624;28;20404;-65
2022/01/21 13:11:56;;;;;;;;;;;;;;;-12.07;42.11;97452.56;6345938;28;19924;-64
2022/01/21 13:14:57;;;;;;;;;;;;;;;-12.21;41.47;97464.78;6345462;28;19919;-64
2022/01/21 13:17:59;;;;;;;;;;;;;;;-12.38;43.92;97465.91;6344418;28;19924;-64
2022/01/21 13:21:04;;;;;;;;;;;;;;;-12.51;43.95;97469.66;6344873;28;19926;-64
2022/01/21 13:24:15;;;;;;;;;;;;;;;-12.64;41.11;97472.63;6345733;28;20004;-65
2022/01/21 13:27:19;;;;;;;;;;;;;;;-12.84;42.46;97471.91;6345424;28;19920;-64
2022/01/21 13:30:24;;;;;;;;;;;;;;;-12.99;41.77;97467.13;6345525;28;19927;-64
2022/01/21 13:33:30;;;;;;;;;;;;;;;-13.13;41.63;97465.00;6344347;28;19965;-64
2022/01/21 13:36:36;;;;;;;;;;;;;;;-13.22;44.25;97462.09;6347448;28;20398;-64
2022/01/21 13:39:39;;;;;;;;;;;;;;;-13.27;41.59;97473.78;6349448;28;19930;-64
2022/01/21 13:42:42;;;;;;;;;;;;;;;-13.38;41.24;97475.91;6349905;28;20060;-65
2022/01/21 13:45:57;;;;;;;;;;;;;;;-13.50;44.08;97484.69;6349703;28;20077;-64
2022/01/21 13:49:03;;;;;;;;;;;;;;;-13.58;42.13;97480.22;6349901;28;20019;-64
2022/01/21 13:52:06;;;;;;;;;;;;;;;-13.61;41.12;97485.16;6348770;28;20325;-64
2022/01/21 13:55:09;;;;;;;;;;;;;;;-13.72;41.71;97476.28;6348748;28;19923;-65
2022/01/21 13:58:15;;;;;;;;;;;;;;;-13.80;42.41;97482.72;6349762;28;19923;-64
2022/01/21 14:01:21;;;;;;;;;;;;;;;-13.87;41.65;97478.19;6349458;28;19924;-64
2022/01/21 14:04:23;;;;;;;;;;;;;;;-14.00;42.53;97481.06;6349745;28;20289;-65
2022/01/21 14:07:34;;;;;;;;;;;;;;;-14.10;41.80;97489.91;6349671;28;19924;-64
2022/01/21 14:10:35;;;;;;;;;;;;;;;-14.21;41.44;97492.00;6348683;28;19930;-63
2022/01/21 14:13:42;;;;;;;;;;;;;;;-14.33;43.03;97496.56;6348988;28;19924;-64
2022/01/21 14:16:46;;;;;;;;;;;;;;;-14.43;41.03;97502.03;6349335;28;19931;-65
2022/01/21 14:19:49;;;;;;;;;;;;;;;-14.56;41.14;97499.03;6348296;28;19931;-65
2022/01/21 14:22:53;;;;;;;;;;;;;;;-14.68;41.12;97517.84;6348435;28;19928;-64
2022/01/21 14:25:54;;;;;;;;;;;;;;;-14.80;42.59;97513.13;6349227;28;20332;-64
2022/01/21 14:28:58;;;;;;;;;;;;;;;-14.84;42.54;97516.31;6349172;28;19989;-64
2022/01/21 14:32:13;;;;;;;;;;;;;;;-14.87;41.38;97511.13;6349254;28;19924;-64
2022/01/21 14:35:30;;;;;;;;;;;;;;;-14.93;41.29;97511.72;6348870;28;20372;-64
2022/01/21 14:38:31;;;;;;;;;;;;;;;-15.05;41.91;97511.19;6347684;28;20274;-65
2022/01/21 14:41:41;;;;;;;;;;;;;;;-15.12;42.68;97517.63;6348841;28;19924;-64
2022/01/21 14:44:47;;;;;;;;;;;;;;;-15.13;41.58;97518.41;6348147;28;20454;-65
2022/01/21 14:47:48;;;;;;;;;;;;;;;-15.15;41.43;97512.44;6347987;28;20389;-65
2022/01/21 14:50:52;;;;;;;;;;;;;;;-15.19;41.79;97513.09;6348614;28;20030;-65
2022/01/21 14:54:06;;;;;;;;;;;;;;;-15.23;41.81;97523.84;6347655;28;19923;-64
2022/01/21 14:57:07;;;;;;;;;;;;;;;-15.28;42.09;97523.66;6347446;28;19930;-64
2022/01/21 15:00:09;;;;;;;;;;;;;;;-15.30;42.18;97524.38;6348388;28;19971;-65
2022/01/21 15:03:24;;;;;;;;;;;;;;;-15.33;42.11;97531.81;6348533;28;20018;-65
2022/01/21 15:06:29;;;;;;;;;;;;;;;-15.44;42.18;97529.63;6347590;28;20381;-65
2022/01/21 15:09:33;;;;;;;;;;;;;;;-15.53;42.86;97534.25;6348117;28;19939;-64
2022/01/21 15:16:05;;;;;;;;;;;;;;;-15.65;46.79;97541.22;6347290;28;19931;-64
2022/01/21 15:19:06;;;;;;;;;;;;;;;-15.65;45.94;97541.22;6347946;28;19924;-64
2022/01/21 15:22:11;;;;;;;;;;;;;;;-15.67;45.23;97542.84;6347868;28;19924;-64
2022/01/21 15:25:13;;;;;;;;;;;;;;;-15.70;45.37;97532.66;6347808;28;20389;-65
2022/01/21 15:28:18;;;;;;;;;;;;;;;-15.73;43.32;97527.47;6347753;28;19923;-65
2022/01/21 15:31:22;;;;;;;;;;;;;;;-15.79;43.31;97533.09;6346653;28;20385;-65
2022/01/21 15:34:25;;;;;;;;;;;;;;;-15.83;42.94;97527.81;6329425;28;19920;-64
2022/01/21 15:37:29;;;;;;;;;;;;;;;-15.89;43.99;97521.66;6346705;28;19923;-64
2022/01/21 15:40:34;;;;;;;;;;;;;;;-15.92;46.28;97529.09;6346852;28;19928;-64
2022/01/21 15:43:35;;;;;;;;;;;;;;;-15.90;44.61;97529.19;6347122;28;20301;-64
2022/01/21 15:46:36;;;;;;;;;;;;;;;-15.93;43.27;97524.84;6347185;28;20292;-64
2022/01/21 15:49:41;;;;;;;;;;;;;;;-15.97;43.04;97532.19;6347363;28;19923;-65
2022/01/21 15:52:44;;;;;;;;;;;;;;;-15.99;43.08;97537.16;6347168;28;20344;-64
2022/01/21 15:55:46;;;;;;;;;;;;;;;-16.03;43.09;97525.19;6347052;28;19924;-63
2022/01/21 15:58:49;;;;;;;;;;;;;;;-16.06;44.74;97520.00;6346848;28;19923;-64
2022/01/21 16:01:50;;;;;;;;;;;;;;;-16.07;44.17;97523.31;6346747;28;19927;-65
2022/01/21 16:04:51;;;;;;;;;;;;;;;-16.11;44.56;97518.91;6345037;28;20282;-64
2022/01/21 16:07:55;;;;;;;;;;;;;;;-16.12;43.74;97527.28;6346167;28;20393;-64
2022/01/21 16:10:56;;;;;;;;;;;;;;;-16.14;43.73;97528.84;6346464;28;19946;-65
2022/01/21 16:13:57;;;;;;;;;;;;;;;-16.17;44.97;97528.69;6346315;28;19923;-63
2022/01/21 16:16:59;;;;;;;;;;;;;;;-16.17;43.78;97533.75;6328037;28;19923;-64
2022/01/21 16:20:03;;;;;;;;;;;;;;;-16.19;43.43;97527.75;6328404;28;19927;-65
2022/01/21 16:23:06;;;;;;;;;;;;;;;-16.18;43.27;97519.41;6346453;28;19923;-64
2022/01/21 16:26:10;;;;;;;;;;;;;;;-16.21;44.01;97521.78;6346237;28;19927;-64
2022/01/21 16:29:16;;;;;;;;;;;;;;;-16.22;45.12;97530.97;6346014;28;20305;-63
2022/01/21 16:32:17;;;;;;;;;;;;;;;-16.21;46.31;97526.84;6311259;28;19970;-62
2022/01/21 16:35:19;;;;;;;;;;;;;;;-16.24;47.36;97537.63;6346332;28;19932;-64
2022/01/21 16:38:20;;;;;;;;;;;;;;;-16.22;45.45;97540.19;6328323;28;19924;-65
2022/01/21 16:41:23;;;;;;;;;;;;;;;-16.26;44.84;97538.34;6346039;28;19924;-65